createdAt,value
2018-10-18T00:01:48.819Z,29.03
2018-10-18T00:04:53.102Z,30.30
2018-10-18T00:07:57.435Z,28.13
2018-10-18T00:11:01.668Z,29.47
2018-10-18T00:14:06.025Z,28.87
2018-10-18T00:17:15.512Z,28.87
2018-10-18T00:20:19.820Z,28.87
2018-10-18T00:23:24.112Z,27.43
2018-10-18T00:26:28.428Z,27.73
2018-10-18T00:29:32.705Z,29.27
2018-10-18T00:32:36.996Z,30.00
2018-10-18T00:35:42.134Z,31.37
2018-10-18T00:38:46.410Z,29.73
2018-10-18T00:41:50.718Z,30.20
2018-10-18T00:44:54.982Z,27.33
2018-10-18T00:47:59.343Z,28.70
2018-10-18T00:51:03.543Z,26.93
2018-10-18T00:54:08.500Z,28.53
2018-10-18T00:57:12.721Z,27.47
2018-10-18T01:00:16.993Z,30.03
2018-10-18T01:03:21.276Z,29.53
2018-10-18T01:06:25.607Z,33.03
2018-10-18T01:09:29.894Z,27.37
2018-10-18T01:12:34.284Z,26.73
2018-10-18T01:15:38.534Z,28.70
2018-10-18T01:18:42.779Z,30.03
2018-10-18T01:21:47.033Z,27.13
2018-10-18T01:24:51.343Z,30.90
2018-10-18T01:27:55.676Z,30.13
2018-10-18T01:30:59.991Z,31.07
2018-10-18T01:34:04.297Z,29.33
2018-10-18T01:37:08.556Z,32.67
2018-10-18T01:40:12.836Z,33.30
2018-10-18T01:43:17.557Z,34.03
2018-10-18T01:46:21.812Z,36.97
2018-10-18T01:49:26.085Z,37.20
2018-10-18T01:52:30.395Z,38.13
2018-10-18T01:55:34.672Z,39.43
2018-10-18T01:58:38.936Z,36.43
2018-10-18T02:01:43.229Z,36.97
2018-10-18T02:04:47.516Z,39.00
2018-10-18T02:07:51.819Z,35.77
2018-10-18T02:10:56.059Z,38.30
2018-10-18T02:14:00.308Z,36.90
2018-10-18T02:17:04.617Z,37.43
2018-10-18T02:20:09.925Z,37.17
2018-10-18T02:23:14.225Z,37.73
2018-10-18T02:26:18.506Z,38.33
2018-10-18T02:29:22.765Z,40.27
2018-10-18T02:32:27.054Z,37.77
2018-10-18T02:35:31.357Z,40.20
2018-10-18T02:38:35.800Z,38.27
2018-10-18T02:41:40.091Z,38.67
2018-10-18T02:44:44.415Z,35.77
2018-10-18T02:47:48.676Z,35.67
2018-10-18T02:50:52.969Z,35.90
2018-10-18T02:53:57.284Z,32.07
2018-10-18T02:57:01.552Z,31.83
2018-10-18T03:00:06.917Z,30.50
2018-10-18T03:03:11.146Z,30.40
2018-10-18T03:06:15.550Z,27.07
2018-10-18T03:09:19.715Z,27.23
2018-10-18T03:12:23.981Z,33.20
2018-10-18T03:15:28.247Z,33.90
2018-10-18T03:18:32.517Z,31.37
2018-10-18T03:21:36.769Z,32.30
2018-10-18T03:24:41.053Z,30.37
2018-10-18T03:27:45.371Z,30.37
2018-10-18T03:30:49.669Z,31.60
2018-10-18T03:33:53.930Z,30.40
2018-10-18T03:36:58.195Z,29.93
2018-10-18T03:40:02.481Z,30.03
2018-10-18T03:43:06.776Z,31.13
2018-10-18T03:46:11.048Z,31.10
2018-10-18T03:49:15.362Z,29.23
2018-10-18T03:52:19.630Z,29.80
2018-10-18T03:55:23.939Z,31.13
2018-10-18T03:58:28.187Z,31.77
2018-10-18T04:01:32.510Z,29.67
2018-10-18T04:04:36.777Z,30.30
2018-10-18T04:07:41.285Z,32.57
2018-10-18T04:10:45.568Z,33.33
2018-10-18T04:13:49.841Z,30.60
2018-10-18T04:16:54.171Z,33.67
2018-10-18T04:19:58.420Z,33.57
2018-10-18T04:23:02.810Z,34.17
2018-10-18T04:26:07.081Z,33.73
2018-10-18T04:29:11.425Z,34.20
2018-10-18T04:32:15.701Z,35.77
2018-10-18T04:35:20.014Z,32.60
2018-10-18T04:38:24.313Z,33.10
2018-10-18T04:41:28.701Z,33.53
2018-10-18T04:44:33.017Z,33.67
2018-10-18T04:47:37.468Z,33.93
2018-10-18T04:50:41.777Z,36.23
2018-10-18T04:53:46.064Z,35.63
2018-10-18T04:56:50.481Z,36.90
2018-10-18T04:59:54.712Z,37.40
2018-10-18T05:02:58.997Z,35.33
2018-10-18T05:06:04.945Z,35.27
2018-10-18T05:09:09.402Z,37.63
2018-10-18T05:12:13.686Z,40.23
2018-10-18T05:15:17.979Z,37.90
2018-10-18T05:18:23.017Z,39.37
2018-10-18T05:21:27.301Z,41.33
2018-10-18T05:24:31.564Z,42.27
2018-10-18T05:27:35.914Z,43.17
2018-10-18T05:30:40.180Z,43.50
2018-10-18T05:33:44.453Z,42.23
2018-10-18T05:36:48.746Z,43.00
2018-10-18T05:39:53.110Z,43.30
2018-10-18T05:42:57.423Z,41.53
2018-10-18T05:46:01.710Z,42.17
2018-10-18T05:49:05.996Z,39.50
2018-10-18T05:52:10.293Z,35.77
2018-10-18T05:55:14.721Z,31.83
2018-10-18T05:58:18.957Z,29.53
2018-10-18T06:01:23.268Z,26.50
2018-10-18T06:04:27.532Z,22.73
2018-10-18T06:07:31.788Z,20.73
2018-10-18T06:10:53.001Z,19.50
2018-10-18T06:13:57.298Z,18.23
2018-10-18T06:17:01.566Z,16.40
2018-10-18T06:20:06.492Z,11.80
2018-10-18T06:23:10.828Z,11.43
2018-10-18T06:26:15.092Z,10.30
2018-10-18T06:29:19.381Z,8.70
2018-10-18T06:32:23.673Z,8.67
2018-10-18T06:35:27.957Z,7.50
2018-10-18T06:38:32.208Z,7.47
2018-10-18T06:41:36.778Z,7.03
2018-10-18T06:44:41.075Z,7.87
2018-10-18T06:47:45.547Z,6.77
2018-10-18T06:50:49.721Z,6.97
2018-10-18T06:53:54.060Z,6.23
2018-10-18T06:56:58.323Z,6.40
2018-10-18T07:00:02.704Z,6.60
2018-10-18T07:03:06.918Z,6.33
2018-10-18T07:06:11.282Z,6.23
2018-10-18T07:09:15.491Z,6.83
2018-10-18T07:12:19.792Z,6.90
2018-10-18T07:15:24.121Z,7.63
2018-10-18T07:18:28.432Z,7.93
2018-10-18T07:21:32.814Z,8.23
2018-10-18T07:24:37.047Z,8.27
2018-10-18T07:27:42.142Z,8.87
2018-10-18T07:30:46.466Z,8.93
2018-10-18T07:33:50.795Z,9.07
2018-10-18T07:36:55.086Z,7.70
2018-10-18T07:39:59.469Z,8.10
2018-10-18T07:43:03.769Z,7.20
2018-10-18T07:46:08.114Z,7.50
2018-10-18T07:49:12.507Z,7.30
2018-10-18T07:52:16.873Z,7.33
2018-10-18T07:55:21.295Z,6.53
2018-10-18T07:58:25.625Z,5.17
2018-10-18T08:01:30.987Z,4.33
2018-10-18T08:04:35.277Z,3.23
2018-10-18T08:07:39.675Z,3.73
2018-10-18T08:10:44.037Z,3.53
2018-10-18T08:13:48.377Z,2.63
2018-10-18T08:16:52.685Z,2.70
2018-10-18T08:19:57.014Z,2.17
2018-10-18T08:23:01.381Z,2.07
2018-10-18T08:26:05.752Z,1.93
2018-10-18T08:29:10.069Z,2.07
2018-10-18T08:32:14.332Z,1.90
2018-10-18T08:35:18.590Z,2.00
2018-10-18T08:38:23.495Z,1.70
2018-10-18T08:41:27.785Z,1.80
2018-10-18T08:44:32.158Z,2.77
2018-10-18T08:47:36.482Z,1.83
2018-10-18T08:50:40.752Z,1.43
2018-10-18T08:53:45.060Z,1.70
2018-10-18T08:56:49.369Z,1.93
2018-10-18T08:59:53.669Z,1.60
2018-10-18T09:02:57.937Z,1.60
2018-10-18T09:06:02.547Z,1.47
2018-10-18T09:09:09.276Z,1.60
2018-10-18T09:12:13.493Z,1.60
2018-10-18T09:15:17.761Z,1.33
2018-10-18T09:18:22.178Z,1.27
2018-10-18T09:21:26.443Z,1.37
2018-10-18T09:24:30.721Z,1.60
2018-10-18T09:27:34.992Z,1.70
2018-10-18T09:30:39.272Z,1.50
2018-10-18T09:33:43.545Z,1.57
2018-10-18T09:36:47.834Z,1.27
2018-10-18T09:39:52.150Z,1.50
2018-10-18T09:42:56.480Z,1.40
2018-10-18T09:46:00.771Z,1.43
2018-10-18T09:49:05.734Z,1.43
2018-10-18T09:52:09.953Z,1.80
2018-10-18T09:55:14.343Z,1.43
2018-10-18T09:58:18.613Z,1.50
2018-10-18T10:01:28.065Z,1.53
2018-10-18T10:04:32.410Z,1.30
2018-10-18T10:07:36.724Z,1.40
2018-10-18T10:10:41.001Z,1.23
2018-10-18T10:13:45.399Z,1.73
2018-10-18T10:16:49.615Z,1.07
2018-10-18T10:19:53.898Z,1.50
2018-10-18T10:22:58.219Z,1.37
2018-10-18T10:26:02.664Z,1.87
2018-10-18T10:29:06.981Z,1.37
2018-10-18T10:32:11.282Z,2.20
2018-10-18T10:35:15.703Z,1.37
2018-10-18T10:38:19.893Z,1.40
2018-10-18T10:41:24.559Z,1.30
2018-10-18T10:44:29.287Z,1.00
2018-10-18T10:47:33.585Z,2.03
2018-10-18T10:50:37.888Z,1.33
2018-10-18T10:53:42.185Z,1.10
2018-10-18T10:56:46.460Z,1.30
2018-10-18T10:59:50.973Z,1.73
2018-10-18T11:02:55.304Z,1.30
2018-10-18T11:05:59.593Z,0.83
2018-10-18T11:09:04.786Z,0.83
2018-10-18T11:12:09.103Z,1.10
2018-10-18T11:15:13.465Z,1.10
2018-10-18T11:18:17.818Z,1.03
2018-10-18T11:21:22.044Z,1.63
2018-10-18T11:24:26.282Z,1.30
2018-10-18T11:27:30.546Z,1.27
2018-10-18T11:30:34.809Z,1.40
2018-10-18T11:33:39.095Z,2.10
2018-10-18T11:36:43.386Z,1.73
2018-10-18T11:39:47.664Z,1.30
2018-10-18T11:42:51.942Z,1.17
2018-10-18T11:45:56.208Z,2.93
2018-10-18T11:49:00.499Z,1.40
2018-10-18T11:52:05.196Z,1.70
2018-10-18T11:55:09.493Z,0.93
2018-10-18T11:58:14.242Z,1.00
2018-10-18T12:01:18.562Z,1.63
2018-10-18T12:04:22.842Z,1.33
2018-10-18T12:07:27.184Z,1.20
2018-10-18T12:10:31.502Z,1.47
2018-10-18T12:13:35.781Z,2.07
2018-10-18T12:16:40.110Z,1.97
2018-10-18T12:19:44.409Z,1.33
2018-10-18T12:22:48.728Z,1.50
2018-10-18T12:25:53.040Z,1.00
2018-10-18T12:28:57.365Z,1.30
2018-10-18T12:32:01.745Z,1.03
2018-10-18T12:35:06.444Z,1.13
2018-10-18T12:38:10.764Z,1.20
2018-10-18T12:41:15.300Z,1.03
2018-10-18T12:44:19.482Z,1.47
2018-10-18T12:47:23.805Z,1.07
2018-10-18T12:50:28.147Z,1.10
2018-10-18T12:53:32.445Z,1.13
2018-10-18T12:56:36.780Z,1.30
2018-10-18T12:59:41.059Z,1.20
2018-10-18T13:02:45.338Z,1.13
2018-10-18T13:05:49.650Z,1.10
2018-10-18T13:08:54.059Z,0.90
2018-10-18T13:11:58.517Z,1.30
2018-10-18T13:15:02.812Z,1.47
2018-10-18T13:18:07.523Z,1.23
2018-10-18T13:21:11.769Z,1.00
2018-10-18T13:24:16.154Z,1.13
2018-10-18T13:27:20.350Z,1.80
2018-10-18T13:30:24.695Z,1.40
2018-10-18T13:33:28.972Z,1.10
2018-10-18T13:36:33.285Z,1.37
2018-10-18T13:39:37.558Z,1.60
2018-10-18T13:42:41.913Z,0.80
2018-10-18T13:45:46.235Z,1.03
2018-10-18T13:48:50.581Z,1.10
2018-10-18T13:51:54.887Z,1.30
2018-10-18T13:54:59.245Z,1.10
2018-10-18T13:58:04.321Z,1.60
2018-10-18T14:01:08.697Z,1.03
2018-10-18T14:04:13.263Z,1.23
2018-10-18T14:07:17.557Z,1.10
2018-10-18T14:10:21.906Z,1.97
2018-10-18T14:13:26.216Z,1.50
2018-10-18T14:16:30.524Z,1.47
2018-10-18T14:19:34.809Z,1.40
2018-10-18T14:22:39.349Z,1.17
2018-10-18T14:25:43.644Z,2.23
2018-10-18T14:28:51.791Z,1.20
2018-10-18T14:32:02.577Z,1.27
2018-10-18T14:35:10.306Z,1.10
2018-10-18T14:38:15.151Z,1.33
2018-10-18T14:41:19.539Z,1.17
2018-10-18T14:44:23.942Z,1.53
2018-10-18T14:47:28.224Z,1.20
2018-10-18T14:50:32.504Z,1.00
2018-10-18T14:53:36.709Z,1.00
2018-10-18T14:56:40.995Z,0.97
2018-10-18T14:59:45.401Z,1.33
2018-10-18T15:02:51.134Z,0.90
2018-10-18T15:05:55.504Z,0.83
2018-10-18T15:08:59.873Z,1.07
2018-10-18T15:12:04.193Z,0.93
2018-10-18T15:15:09.736Z,1.40
2018-10-18T15:18:14.093Z,1.30
2018-10-18T15:21:18.401Z,1.20
2018-10-18T15:24:22.801Z,1.10
2018-10-18T15:27:27.416Z,1.47
2018-10-18T15:30:31.670Z,1.07
2018-10-18T15:33:36.071Z,1.07
2018-10-18T15:36:40.479Z,0.90
2018-10-18T15:39:45.297Z,0.93
2018-10-18T15:42:49.669Z,1.20
2018-10-18T15:45:56.725Z,1.37
2018-10-18T15:49:01.066Z,1.23
2018-10-18T15:52:05.978Z,1.30
2018-10-18T15:55:10.425Z,0.87
2018-10-18T15:58:14.702Z,1.13
2018-10-18T16:01:19.033Z,1.10
2018-10-18T16:04:23.285Z,1.27
2018-10-18T16:07:27.661Z,1.30
2018-10-18T16:10:31.965Z,1.70
2018-10-18T16:13:37.504Z,1.20
2018-10-18T16:16:41.777Z,1.10
2018-10-18T16:19:46.093Z,1.33
2018-10-18T16:22:50.394Z,1.60
2018-10-18T16:25:54.773Z,1.60
2018-10-18T16:28:59.413Z,1.30
2018-10-18T16:32:03.770Z,1.67
2018-10-18T16:35:08.842Z,1.33
2018-10-18T16:38:13.126Z,1.83
2018-10-18T16:41:17.576Z,2.10
2018-10-18T16:44:21.749Z,2.07
2018-10-18T16:47:26.096Z,2.03
2018-10-18T16:50:30.389Z,2.63
2018-10-18T16:53:35.114Z,2.90
2018-10-18T16:56:39.417Z,2.83
2018-10-18T16:59:43.794Z,2.70
2018-10-18T17:02:48.059Z,3.10
2018-10-18T17:05:52.442Z,2.90
2018-10-18T17:08:56.762Z,2.57
2018-10-18T17:12:01.110Z,3.53
2018-10-18T17:15:06.571Z,2.87
2018-10-18T17:18:10.906Z,7.77
2018-10-18T17:21:15.367Z,5.43
2018-10-18T17:24:19.692Z,3.43
2018-10-18T17:27:24.046Z,3.27
2018-10-18T17:30:28.372Z,2.93
2018-10-18T17:33:32.688Z,2.10
2018-10-18T17:36:37.009Z,2.57
2018-10-18T17:39:41.321Z,2.10
2018-10-18T17:42:45.609Z,1.90
2018-10-18T17:45:49.873Z,1.77
2018-10-18T17:48:54.157Z,1.80
2018-10-18T17:51:58.514Z,2.17
2018-10-18T17:55:02.829Z,1.90
2018-10-18T17:58:07.159Z,2.30
2018-10-18T18:01:11.393Z,2.23
2018-10-18T18:04:15.814Z,1.47
2018-10-18T18:07:20.009Z,1.80
2018-10-18T18:10:24.386Z,1.90
2018-10-18T18:13:28.807Z,1.73
2018-10-18T18:16:34.590Z,1.80
2018-10-18T18:19:42.495Z,1.80
2018-10-18T18:22:47.451Z,2.00
2018-10-18T18:25:51.794Z,1.50
2018-10-18T18:28:56.153Z,2.17
2018-10-18T18:32:00.696Z,1.70
2018-10-18T18:35:05.731Z,2.00
2018-10-18T18:38:10.140Z,1.50
2018-10-18T18:41:14.525Z,1.60
2018-10-18T18:44:18.836Z,1.70
2018-10-18T18:47:23.193Z,1.90
2018-10-18T18:50:27.521Z,2.10
2018-10-18T18:53:31.844Z,1.43
2018-10-18T18:56:38.130Z,2.00
2018-10-18T18:59:42.542Z,1.97
2018-10-18T19:02:47.135Z,1.70
2018-10-18T19:05:51.652Z,2.23
2018-10-18T19:08:56.165Z,1.93
2018-10-18T19:12:00.909Z,2.43
2018-10-18T19:15:06.537Z,2.40
2018-10-18T19:18:11.185Z,2.00
2018-10-18T19:21:15.713Z,2.40
2018-10-18T19:24:20.272Z,2.53
2018-10-18T19:27:25.138Z,2.67
2018-10-18T19:30:29.898Z,1.80
2018-10-18T19:33:36.170Z,1.97
2018-10-18T19:36:41.078Z,2.03
2018-10-18T19:39:45.631Z,2.27
2018-10-18T19:42:50.418Z,2.23
2018-10-18T19:45:58.418Z,2.27
2018-10-18T19:49:07.849Z,2.13
2018-10-18T19:52:12.794Z,2.50
2018-10-18T19:55:22.014Z,1.83
2018-10-18T19:58:26.788Z,2.20
2018-10-18T20:01:31.074Z,1.73
2018-10-18T20:04:35.629Z,2.00
2018-10-18T20:07:40.106Z,3.03
2018-10-18T20:10:44.798Z,2.30
2018-10-18T20:13:49.340Z,1.70
2018-10-18T20:16:53.749Z,2.37
2018-10-18T20:19:58.801Z,2.53
2018-10-18T20:23:03.671Z,1.93
2018-10-18T20:26:08.976Z,2.33
2018-10-18T20:29:13.386Z,2.20
2018-10-18T20:32:18.348Z,2.13
2018-10-18T20:35:23.432Z,2.27
2018-10-18T20:38:28.069Z,2.87
2018-10-18T20:41:32.612Z,2.20
2018-10-18T20:44:37.366Z,2.10
2018-10-18T20:47:42.291Z,2.53
2018-10-18T20:50:46.861Z,2.90
2018-10-18T20:53:51.649Z,2.83
2018-10-18T20:56:56.128Z,2.43
2018-10-18T21:00:00.833Z,3.17
2018-10-18T21:03:06.350Z,2.53
2018-10-18T21:06:11.872Z,2.40
2018-10-18T21:09:17.025Z,2.53
2018-10-18T21:12:22.645Z,3.27
2018-10-18T21:15:27.419Z,3.10
2018-10-18T21:18:32.293Z,2.83
2018-10-18T21:21:37.275Z,2.63
2018-10-18T21:24:41.870Z,2.17
2018-10-18T21:27:46.570Z,2.60
2018-10-18T21:30:51.376Z,2.67
2018-10-18T21:33:55.924Z,2.90
2018-10-18T21:37:00.312Z,2.50
2018-10-18T21:40:04.869Z,2.60
2018-10-18T21:43:09.458Z,2.60
2018-10-18T21:46:13.730Z,2.30
2018-10-18T21:49:18.537Z,2.90
2018-10-18T21:52:23.213Z,2.50
2018-10-18T21:55:27.640Z,3.00
2018-10-18T21:58:32.238Z,2.50
2018-10-18T22:01:36.989Z,2.93
2018-10-18T22:04:41.265Z,2.40
2018-10-18T22:07:45.957Z,2.50
2018-10-18T22:10:51.224Z,2.87
2018-10-18T22:13:56.102Z,2.60
2018-10-18T22:17:01.966Z,3.10
2018-10-18T22:20:08.647Z,4.83
2018-10-18T22:23:14.290Z,6.50
2018-10-18T22:26:19.856Z,7.50
2018-10-18T22:29:24.977Z,7.60
2018-10-18T22:32:30.485Z,5.90
2018-10-18T22:35:36.204Z,3.87
2018-10-18T22:38:42.125Z,2.50
2018-10-18T22:41:47.063Z,2.97
2018-10-18T22:44:51.748Z,3.03
2018-10-18T22:47:57.516Z,2.73
2018-10-18T22:51:03.144Z,3.00
2018-10-18T22:54:07.939Z,3.10
2018-10-18T22:57:12.293Z,2.83
2018-10-18T23:00:16.693Z,2.87
2018-10-18T23:03:22.069Z,3.33
2018-10-18T23:06:26.615Z,3.20
2018-10-18T23:09:31.066Z,3.00
2018-10-18T23:12:36.023Z,3.00
2018-10-18T23:15:40.333Z,3.47
2018-10-18T23:18:45.040Z,2.83
2018-10-18T23:21:49.540Z,3.03
2018-10-18T23:24:54.191Z,2.77
2018-10-18T23:27:58.504Z,2.73
2018-10-18T23:31:03.091Z,2.67
2018-10-18T23:34:08.100Z,2.60
2018-10-18T23:37:12.413Z,3.40
2018-10-18T23:40:17.143Z,2.67
2018-10-18T23:43:21.397Z,3.00
2018-10-18T23:46:25.743Z,3.73
2018-10-18T23:49:30.072Z,3.37
2018-10-18T23:52:34.454Z,3.17
2018-10-18T23:55:38.761Z,3.10
2018-10-18T23:58:43.083Z,3.07
